Time;durP1;ratioP1;P1;durP2;ratioP2;P2;SDS_P1;SDS_P2;PMS_P1;PMS_P2;Temp;Humidity;BMP_temperature;BMP_pressure;BME280_temperature;BME280_humidity;BME280_pressure;Samples;Min_cycle;Max_cycle;Signal;HPM_P1;HPM_P2
2021/04/07 00:00:40;;;;;;;11.67;2.10;;;1.30;99.90;;;;;;4380062;32;20705;-62
2021/04/07 00:03:08;;;;;;;12.37;2.20;;;1.20;99.90;;;;;;4376352;32;20270;-62
2021/04/07 00:05:37;;;;;;;9.83;1.80;;;1.20;99.90;;;;;;4380380;32;20188;-61
2021/04/07 00:08:06;;;;;;;13.43;2.73;;;1.20;99.90;;;;;;4378557;32;20306;-62
2021/04/07 00:10:35;;;;;;;18.83;1.97;;;1.20;99.90;;;;;;4378385;32;20232;-62
2021/04/07 00:13:02;;;;;;;13.63;3.03;;;1.10;99.90;;;;;;4375672;32;20267;-61
2021/04/07 00:15:29;;;;;;;11.57;2.40;;;1.20;99.90;;;;;;4375356;32;20183;-61
2021/04/07 00:17:56;;;;;;;21.57;2.70;;;1.30;99.90;;;;;;4376546;32;20211;-60
2021/04/07 00:20:24;;;;;;;9.60;1.73;;;1.40;99.90;;;;;;4379712;32;20632;-60
2021/04/07 00:22:51;;;;;;;8.43;1.70;;;1.50;99.90;;;;;;4380811;32;20550;-62
2021/04/07 00:25:19;;;;;;;6.47;1.87;;;1.50;99.90;;;;;;4383270;32;20231;-62
2021/04/07 00:27:54;;;;;;;11.73;2.50;;;1.50;99.90;;;;;;4377164;32;20362;-61
2021/04/07 00:30:21;;;;;;;7.90;1.83;;;1.50;99.90;;;;;;4379166;32;20182;-61
2021/04/07 00:32:48;;;;;;;11.57;2.93;;;1.50;99.90;;;;;;4376968;32;20160;-59
2021/04/07 00:35:15;;;;;;;12.37;2.37;;;1.50;99.90;;;;;;4374162;32;20198;-60
2021/04/07 00:37:41;;;;;;;12.17;2.67;;;1.50;99.90;;;;;;4376712;32;20296;-60
2021/04/07 00:40:09;;;;;;;7.97;2.20;;;1.50;99.90;;;;;;4378930;32;20194;-61
2021/04/07 00:42:37;;;;;;;13.43;2.60;;;1.60;99.90;;;;;;4378416;32;20951;-63
2021/04/07 00:45:07;;;;;;;6.77;1.77;;;1.60;99.90;;;;;;4384778;32;20239;-61
2021/04/07 00:47:34;;;;;;;8.33;1.97;;;1.60;99.90;;;;;;4378211;32;20232;-62
2021/04/07 00:50:01;;;;;;;7.07;1.83;;;1.70;99.90;;;;;;4380782;32;20256;-60
2021/04/07 00:52:27;;;;;;;6.80;1.80;;;1.80;99.90;;;;;;4380187;32;20186;-60
2021/04/07 00:54:54;;;;;;;7.93;1.97;;;1.80;99.90;;;;;;4381617;32;20623;-61
2021/04/07 00:57:22;;;;;;;8.33;2.13;;;1.70;99.90;;;;;;4381512;32;20164;-59
2021/04/07 00:59:50;;;;;;;14.53;2.67;;;1.80;99.90;;;;;;4385293;32;20182;-62
2021/04/07 01:11:52;;;;;;;9.27;2.43;;;1.60;99.90;;;;;;4376559;32;20622;-62
2021/04/07 01:14:19;;;;;;;8.47;2.10;;;1.40;99.90;;;;;;4378870;32;20160;-60
2021/04/07 01:16:46;;;;;;;9.47;1.83;;;1.30;99.90;;;;;;4376002;32;20237;-62
2021/04/07 01:19:13;;;;;;;14.07;2.83;;;1.30;99.90;;;;;;4374830;32;20168;-61
2021/04/07 01:21:44;;;;;;;6.20;3.03;;;1.20;99.90;;;;;;4372839;32;20168;-64
2021/04/07 01:24:11;;;;;;;8.43;2.33;;;1.20;99.90;;;;;;4377056;32;20215;-61
2021/04/07 01:26:38;;;;;;;9.93;1.90;;;1.30;99.90;;;;;;4375417;32;20211;-60
2021/04/07 01:29:04;;;;;;;10.13;1.97;;;1.20;99.90;;;;;;4379876;32;20220;-61
2021/04/07 01:31:31;;;;;;;6.27;2.17;;;1.10;99.90;;;;;;4378571;32;20175;-61
2021/04/07 01:33:57;;;;;;;7.67;2.00;;;1.10;99.90;;;;;;4376200;32;20204;-60
2021/04/07 01:36:24;;;;;;;13.20;2.60;;;1.10;99.90;;;;;;4374806;32;20266;-62
2021/04/07 01:38:50;;;;;;;17.97;2.50;;;1.10;99.90;;;;;;4377044;32;23360;-61
2021/04/07 01:41:19;;;;;;;9.73;2.23;;;1.10;99.90;;;;;;4379052;32;20290;-62
2021/04/07 01:43:47;;;;;;;8.70;2.43;;;1.10;99.90;;;;;;4375449;32;20267;-63
2021/04/07 01:46:14;;;;;;;12.93;2.13;;;1.10;99.90;;;;;;4373135;32;20187;-60
2021/04/07 01:48:41;;;;;;;11.53;2.50;;;1.10;99.90;;;;;;4373088;32;20175;-60
2021/04/07 01:51:08;;;;;;;5.77;1.93;;;1.10;99.90;;;;;;4374603;32;20266;-62
2021/04/07 01:53:34;;;;;;;10.03;2.70;;;1.10;99.90;;;;;;4377280;32;20223;-60
2021/04/07 01:56:01;;;;;;;13.23;2.63;;;1.10;99.90;;;;;;4376853;32;20220;-62
2021/04/07 01:58:28;;;;;;;9.80;2.27;;;1.10;99.90;;;;;;4374070;32;20200;-62
2021/04/07 02:00:54;;;;;;;9.97;2.23;;;1.10;99.90;;;;;;4379075;32;20228;-60
2021/04/07 02:03:20;;;;;;;11.90;2.47;;;1.10;99.90;;;;;;4380565;32;20220;-61
2021/04/07 02:05:47;;;;;;;8.80;2.33;;;1.00;99.90;;;;;;4379597;32;20214;-60
2021/04/07 02:08:13;;;;;;;6.13;2.53;;;1.00;99.90;;;;;;4387688;32;20204;-62
2021/04/07 02:10:39;;;;;;;12.13;2.87;;;1.10;99.90;;;;;;4386976;32;20186;-60
2021/04/07 02:13:06;;;;;;;9.30;2.40;;;1.10;99.90;;;;;;4386713;32;20211;-62
2021/04/07 02:15:33;;;;;;;4.57;1.97;;;1.20;99.90;;;;;;4374931;32;20164;-63
2021/04/07 02:17:59;;;;;;;8.83;2.03;;;1.10;99.90;;;;;;4382428;32;20212;-64
2021/04/07 02:20:25;;;;;;;6.17;2.10;;;1.10;99.90;;;;;;4377993;32;20247;-64
2021/04/07 02:22:53;;;;;;;10.57;2.00;;;1.20;99.90;;;;;;4382658;32;20211;-64
2021/04/07 02:25:19;;;;;;;9.10;1.90;;;1.10;99.90;;;;;;4382653;32;20273;-62
2021/04/07 02:27:46;;;;;;;6.57;2.43;;;1.00;99.90;;;;;;4383249;32;20208;-63
2021/04/07 02:30:15;;;;;;;8.63;2.07;;;1.00;99.90;;;;;;4382357;32;20215;-63
2021/04/07 02:32:42;;;;;;;5.07;1.43;;;1.00;99.90;;;;;;4377288;32;20168;-62
2021/04/07 02:35:09;;;;;;;4.87;2.07;;;1.10;99.90;;;;;;4383613;32;20199;-64
2021/04/07 02:37:36;;;;;;;14.90;2.37;;;1.10;99.90;;;;;;4382239;32;20171;-64
2021/04/07 02:40:03;;;;;;;8.50;2.13;;;1.10;99.90;;;;;;4385927;32;20175;-63
2021/04/07 02:42:29;;;;;;;8.10;1.90;;;1.20;99.90;;;;;;4378012;32;20217;-64
2021/04/07 02:44:56;;;;;;;8.57;2.03;;;1.20;99.90;;;;;;4387409;32;20275;-65
2021/04/07 02:47:22;;;;;;;2.83;1.80;;;1.30;99.90;;;;;;4376785;32;20232;-63
2021/04/07 02:49:49;;;;;;;10.47;2.37;;;1.30;99.90;;;;;;4385634;32;20203;-64
2021/04/07 02:52:15;;;;;;;7.37;2.00;;;1.30;99.90;;;;;;4378035;32;20172;-63
2021/04/07 02:54:42;;;;;;;10.13;2.50;;;1.20;99.90;;;;;;4381416;32;20176;-62
2021/04/07 02:57:08;;;;;;;11.00;2.47;;;1.20;99.90;;;;;;4388073;32;20267;-63
2021/04/07 02:59:35;;;;;;;13.83;2.50;;;1.20;99.90;;;;;;4390001;32;20211;-64
2021/04/07 03:02:02;;;;;;;15.00;2.63;;;1.20;99.90;;;;;;4385910;32;20307;-62
2021/04/07 03:04:29;;;;;;;9.77;2.40;;;1.20;99.90;;;;;;4390669;32;20191;-62
2021/04/07 03:06:56;;;;;;;11.70;2.73;;;1.30;99.90;;;;;;4388588;32;20172;-62
2021/04/07 03:09:22;;;;;;;15.23;3.70;;;1.30;99.90;;;;;;4393224;32;20214;-64
2021/04/07 03:11:48;;;;;;;17.53;2.53;;;1.30;99.90;;;;;;4377674;32;20183;-61
2021/04/07 03:14:15;;;;;;;13.43;2.70;;;1.30;99.90;;;;;;4380403;32;20255;-63
2021/04/07 03:16:41;;;;;;;12.97;2.87;;;1.40;99.90;;;;;;4378092;32;20195;-61
2021/04/07 03:19:07;;;;;;;11.13;2.73;;;1.40;99.90;;;;;;4389914;32;20626;-61
2021/04/07 03:21:34;;;;;;;15.67;3.50;;;1.40;99.90;;;;;;4389177;32;20159;-61
2021/04/07 03:24:01;;;;;;;19.77;2.73;;;1.40;99.90;;;;;;4391270;32;20213;-62
2021/04/07 03:26:27;;;;;;;11.63;2.90;;;1.40;99.90;;;;;;4392478;32;20243;-59
2021/04/07 03:28:53;;;;;;;15.63;2.30;;;1.50;99.90;;;;;;4383468;32;20212;-61
2021/04/07 03:31:20;;;;;;;13.47;2.60;;;1.40;99.90;;;;;;4378717;32;20148;-61
2021/04/07 03:33:46;;;;;;;15.70;2.67;;;1.50;99.90;;;;;;4386126;32;20708;-61
2021/04/07 03:36:12;;;;;;;14.67;3.13;;;1.40;99.90;;;;;;4379538;32;20216;-62
2021/04/07 03:38:38;;;;;;;18.37;3.87;;;1.40;99.90;;;;;;4378229;32;20216;-62
2021/04/07 03:41:06;;;;;;;10.17;3.00;;;1.40;99.90;;;;;;4380726;32;20209;-62
2021/04/07 03:43:32;;;;;;;14.57;2.90;;;1.40;99.90;;;;;;4379114;32;20237;-61
2021/04/07 03:45:59;;;;;;;11.63;2.27;;;1.40;99.90;;;;;;4388636;32;20196;-61
2021/04/07 03:48:27;;;;;;;15.70;2.93;;;1.40;99.90;;;;;;4392749;32;20588;-62
2021/04/07 03:50:54;;;;;;;11.50;2.50;;;1.40;99.90;;;;;;4376885;32;20218;-63
2021/04/07 03:53:23;;;;;;;7.93;2.20;;;1.50;99.90;;;;;;4389124;32;20203;-62
2021/04/07 03:55:51;;;;;;;14.47;3.27;;;1.50;99.90;;;;;;4390398;32;20585;-63
2021/04/07 03:58:20;;;;;;;13.77;2.33;;;1.40;99.90;;;;;;4391150;32;20147;-64
2021/04/07 04:00:46;;;;;;;16.27;2.60;;;1.30;99.90;;;;;;4384062;32;20160;-62
2021/04/07 04:03:13;;;;;;;10.50;2.13;;;1.20;99.90;;;;;;4391556;32;20168;-60
2021/04/07 04:05:40;;;;;;;5.77;1.87;;;1.20;99.90;;;;;;4382419;32;20160;-62
2021/04/07 04:08:07;;;;;;;9.13;1.93;;;1.10;99.90;;;;;;4378922;32;20152;-61
2021/04/07 04:10:34;;;;;;;8.40;2.43;;;1.10;99.90;;;;;;4381434;32;20168;-61
2021/04/07 04:13:01;;;;;;;12.27;2.67;;;1.10;99.90;;;;;;4378825;32;20215;-63
2021/04/07 04:15:28;;;;;;;12.00;2.13;;;1.10;99.90;;;;;;4386234;32;20206;-60
2021/04/07 04:17:55;;;;;;;7.33;2.07;;;1.10;99.90;;;;;;4385554;32;20182;-61
2021/04/07 04:20:21;;;;;;;11.70;2.60;;;1.00;99.90;;;;;;4377135;32;20176;-60
2021/04/07 04:22:48;;;;;;;11.60;2.87;;;1.10;99.90;;;;;;4382634;32;20175;-63
2021/04/07 04:25:16;;;;;;;13.87;2.33;;;1.10;99.90;;;;;;4380417;32;20172;-62
2021/04/07 04:27:43;;;;;;;8.47;2.70;;;1.10;99.90;;;;;;4378680;32;20215;-63
2021/04/07 04:30:13;;;;;;;7.10;2.70;;;1.00;99.90;;;;;;4378446;32;20229;-61
2021/04/07 04:32:40;;;;;;;7.17;2.27;;;0.90;99.90;;;;;;4380050;32;20212;-61
2021/04/07 04:35:09;;;;;;;8.63;2.53;;;0.90;99.90;;;;;;4394951;32;20577;-61
2021/04/07 04:37:36;;;;;;;7.80;2.63;;;0.90;99.90;;;;;;4384874;32;20211;-61
2021/04/07 04:40:04;;;;;;;9.37;2.57;;;0.90;99.90;;;;;;4374990;32;20247;-61
2021/04/07 04:42:30;;;;;;;6.33;2.23;;;0.90;99.90;;;;;;4376294;32;20214;-63
2021/04/07 04:44:57;;;;;;;7.00;2.80;;;0.80;99.90;;;;;;4375719;32;20252;-62
2021/04/07 04:47:23;;;;;;;4.47;1.93;;;0.90;99.90;;;;;;4381144;32;20215;-60
2021/04/07 04:49:51;;;;;;;6.87;2.07;;;0.90;99.90;;;;;;4378029;32;20212;-61
2021/04/07 04:52:18;;;;;;;5.30;2.00;;;0.80;99.90;;;;;;4386167;32;20148;-62
2021/04/07 04:54:44;;;;;;;7.63;2.43;;;0.80;99.90;;;;;;4389250;32;20176;-60
2021/04/07 04:57:10;;;;;;;3.97;2.10;;;0.80;99.90;;;;;;4389190;32;20175;-59
2021/04/07 04:59:37;;;;;;;4.90;2.47;;;0.80;99.90;;;;;;4379609;32;20219;-60
2021/04/07 05:02:03;;;;;;;5.70;2.60;;;0.80;99.90;;;;;;4387123;32;20184;-61
2021/04/07 05:04:29;;;;;;;7.20;2.63;;;0.80;99.90;;;;;;4383688;32;20148;-59
2021/04/07 05:06:56;;;;;;;5.20;2.77;;;0.80;99.90;;;;;;4384337;32;20209;-61
2021/04/07 05:09:23;;;;;;;5.70;3.93;;;0.80;99.90;;;;;;4376164;32;20582;-59
2021/04/07 05:11:49;;;;;;;10.27;4.03;;;0.80;99.90;;;;;;4374392;32;20263;-62
2021/04/07 05:14:17;;;;;;;9.37;3.93;;;0.80;99.90;;;;;;4377316;32;20503;-62
2021/04/07 05:16:43;;;;;;;10.03;4.13;;;0.90;99.90;;;;;;4380001;32;20167;-61
2021/04/07 05:19:10;;;;;;;7.40;4.07;;;0.90;99.90;;;;;;4384390;32;20214;-59
2021/04/07 05:21:36;;;;;;;10.67;4.40;;;0.90;99.90;;;;;;4381014;32;20517;-62
2021/04/07 05:24:04;;;;;;;15.43;4.63;;;0.90;99.90;;;;;;4383032;32;20216;-64
2021/04/07 05:26:30;;;;;;;13.80;4.20;;;0.90;99.90;;;;;;4385047;32;20159;-60
2021/04/07 05:28:56;;;;;;;9.93;4.93;;;0.90;99.90;;;;;;4387993;32;20215;-62
2021/04/07 05:31:23;;;;;;;13.90;4.40;;;0.90;99.90;;;;;;4383061;32;20222;-61
2021/04/07 05:33:49;;;;;;;11.97;4.47;;;0.90;99.90;;;;;;4383179;32;20227;-63
2021/04/07 05:36:16;;;;;;;15.47;4.90;;;0.90;99.90;;;;;;4381820;32;20176;-62
2021/04/07 05:38:43;;;;;;;16.17;5.43;;;0.90;99.90;;;;;;4381122;32;20620;-63
2021/04/07 05:41:10;;;;;;;12.47;4.73;;;0.90;99.90;;;;;;4380448;32;20169;-62
2021/04/07 05:43:39;;;;;;;15.33;4.93;;;0.90;99.90;;;;;;4380711;32;20222;-61
2021/04/07 05:46:06;;;;;;;16.80;5.03;;;0.90;99.90;;;;;;4381659;32;20583;-63
2021/04/07 05:48:32;;;;;;;18.67;6.10;;;1.00;99.90;;;;;;4379596;32;20172;-61
2021/04/07 05:51:00;;;;;;;22.53;5.07;;;1.00;99.90;;;;;;4384726;32;20215;-61
2021/04/07 05:53:26;;;;;;;22.97;5.13;;;1.10;99.90;;;;;;4381141;32;20229;-64
2021/04/07 05:55:54;;;;;;;22.60;4.30;;;1.20;99.90;;;;;;4379912;32;20208;-64
2021/04/07 05:58:25;;;;;;;17.97;5.23;;;1.30;99.90;;;;;;4378879;32;20276;-63
2021/04/07 06:00:51;;;;;;;11.77;4.63;;;1.20;99.90;;;;;;4377852;32;20232;-65
2021/04/07 06:03:18;;;;;;;19.07;3.93;;;1.30;99.90;;;;;;4378311;32;20301;-60
2021/04/07 06:05:46;;;;;;;23.47;4.07;;;1.30;99.90;;;;;;4378722;32;20215;-62
2021/04/07 06:08:13;;;;;;;15.00;2.83;;;1.60;99.90;;;;;;4381188;32;20184;-62
2021/04/07 06:10:41;;;;;;;13.60;2.90;;;1.60;99.90;;;;;;4376718;32;20279;-61
2021/04/07 06:13:08;;;;;;;16.97;3.83;;;1.60;99.90;;;;;;4378103;32;20237;-62
2021/04/07 06:15:37;;;;;;;22.80;4.37;;;1.60;99.90;;;;;;4377651;32;20227;-65
2021/04/07 06:18:05;;;;;;;11.27;2.70;;;1.80;99.90;;;;;;4375733;32;20266;-63
2021/04/07 06:20:33;;;;;;;10.63;3.03;;;1.80;99.90;;;;;;4377218;32;20160;-65
2021/04/07 06:23:01;;;;;;;18.53;4.07;;;1.70;99.90;;;;;;4380508;32;20184;-61
2021/04/07 06:25:28;;;;;;;14.10;3.13;;;1.80;99.90;;;;;;4381222;32;20572;-61
2021/04/07 06:27:56;;;;;;;20.20;4.03;;;1.90;99.90;;;;;;4378290;32;20217;-61
2021/04/07 06:30:40;;;;;;;21.83;3.80;;;1.90;99.90;;;;;;4381901;32;20172;-61
2021/04/07 06:33:08;;;;;;;17.17;3.93;;;2.30;99.90;;;;;;4381568;32;20226;-60
2021/04/07 06:35:34;;;;;;;19.67;3.90;;;2.70;99.90;;;;;;4379766;32;20181;-61
2021/04/07 06:38:01;;;;;;;19.83;4.70;;;2.50;99.90;;;;;;4377726;32;20195;-60
2021/04/07 06:40:28;;;;;;;24.77;5.03;;;2.70;99.90;;;;;;4380352;32;20699;-61
2021/04/07 06:42:55;;;;;;;22.03;3.97;;;2.60;99.90;;;;;;4381671;32;20576;-62
2021/04/07 06:45:22;;;;;;;24.20;4.13;;;3.00;99.90;;;;;;4380683;32;20236;-62
2021/04/07 06:47:50;;;;;;;23.90;4.40;;;3.30;99.90;;;;;;4382368;32;20180;-63
2021/04/07 06:50:18;;;;;;;25.37;4.37;;;3.20;99.90;;;;;;4388467;32;20191;-61
2021/04/07 06:52:45;;;;;;;22.10;3.90;;;3.40;99.90;;;;;;4385555;32;20206;-61
2021/04/07 06:55:15;;;;;;;14.80;3.60;;;3.60;99.90;;;;;;4384361;32;20183;-60
2021/04/07 06:57:45;;;;;;;19.47;3.50;;;3.80;99.90;;;;;;4387694;32;20176;-62
2021/04/07 07:00:14;;;;;;;18.67;3.83;;;4.10;99.90;;;;;;4387556;32;20182;-61
2021/04/07 07:02:41;;;;;;;14.70;3.13;;;4.60;99.90;;;;;;4385208;32;20167;-64
2021/04/07 07:05:09;;;;;;;17.77;3.83;;;4.80;99.90;;;;;;4387477;32;20231;-64
2021/04/07 07:07:36;;;;;;;15.73;2.83;;;5.10;99.90;;;;;;4386606;32;20488;-64
2021/04/07 07:10:03;;;;;;;16.23;3.43;;;5.00;99.90;;;;;;4342725;32;1162930;-61
2021/04/07 07:12:31;;;;;;;16.40;3.63;;;5.30;99.90;;;;;;4387212;32;20155;-60
2021/04/07 07:15:02;;;;;;;15.63;3.87;;;5.60;99.90;;;;;;4387273;32;20533;-62
2021/04/07 07:17:29;;;;;;;19.83;3.37;;;5.30;99.90;;;;;;4386982;32;20560;-61
2021/04/07 07:19:56;;;;;;;21.77;3.60;;;5.30;99.90;;;;;;4390437;32;20224;-61
2021/04/07 07:22:24;;;;;;;21.43;3.50;;;5.10;99.90;;;;;;4390048;32;20600;-61
2021/04/07 07:24:53;;;;;;;24.30;5.30;;;5.20;99.90;;;;;;4387583;32;20147;-60
2021/04/07 07:27:20;;;;;;;26.13;5.10;;;5.30;99.90;;;;;;4384747;32;20164;-63
2021/04/07 07:29:55;;;;;;;29.77;5.80;;;5.20;99.90;;;;;;4382963;32;20214;-61
2021/04/07 07:32:33;;;;;;;31.80;5.50;;;5.00;99.90;;;;;;4382351;32;20156;-62
2021/04/07 07:35:11;;;;;;;27.90;5.67;;;5.00;99.90;;;;;;4381848;32;20207;-62
2021/04/07 07:37:38;;;;;;;29.67;6.30;;;5.10;99.90;;;;;;4386239;32;20187;-62
2021/04/07 07:40:08;;;;;;;32.67;6.13;;;5.20;99.90;;;;;;4389681;32;20148;-61
2021/04/07 07:42:35;;;;;;;33.80;6.07;;;5.10;99.90;;;;;;4382182;32;20165;-62
2021/04/07 07:45:01;;;;;;;31.53;6.03;;;5.20;99.90;;;;;;4387436;32;20146;-62
2021/04/07 07:47:30;;;;;;;37.53;8.13;;;5.40;99.90;;;;;;4386878;32;20163;-62
2021/04/07 07:49:59;;;;;;;33.77;6.60;;;5.40;99.90;;;;;;4386254;32;20180;-63
2021/04/07 07:52:29;;;;;;;26.93;6.10;;;5.50;99.90;;;;;;4390839;32;20149;-65
2021/04/07 07:54:57;;;;;;;48.13;7.40;;;5.60;99.90;;;;;;4388755;32;20487;-63
2021/04/07 07:57:24;;;;;;;36.57;6.77;;;5.80;99.90;;;;;;4387784;32;20144;-63
2021/04/07 07:59:57;;;;;;;35.63;6.97;;;5.70;99.90;;;;;;4385498;32;20156;-61
2021/04/07 08:02:31;;;;;;;43.83;7.03;;;5.60;99.90;;;;;;4383603;32;20176;-64
2021/04/07 08:04:57;;;;;;;48.17;7.50;;;5.50;99.90;;;;;;4377003;32;20253;-60
2021/04/07 08:07:23;;;;;;;36.33;6.70;;;5.40;99.90;;;;;;4376523;32;20140;-62
2021/04/07 08:09:50;;;;;;;36.63;6.33;;;5.50;99.90;;;;;;4377824;32;20190;-61
2021/04/07 08:12:18;;;;;;;27.57;6.13;;;5.50;99.90;;;;;;4376408;32;20648;-65
2021/04/07 08:14:48;;;;;;;27.63;5.57;;;5.60;99.90;;;;;;4378107;32;20472;-63
2021/04/07 08:17:17;;;;;;;30.50;5.93;;;5.60;99.90;;;;;;4379419;32;20148;-63
2021/04/07 08:19:53;;;;;;;35.73;6.37;;;5.80;99.90;;;;;;4381490;32;20301;-61
2021/04/07 08:22:36;;;;;;;33.93;7.93;;;5.90;99.90;;;;;;4373992;32;20471;-63
2021/04/07 08:25:10;;;;;;;35.27;6.40;;;6.00;99.90;;;;;;4378053;32;20226;-64
2021/04/07 08:27:42;;;;;;;40.33;6.13;;;6.10;99.90;;;;;;4376035;32;20193;-61
2021/04/07 08:30:13;;;;;;;22.63;5.10;;;6.40;99.80;;;;;;4384543;32;20662;-62
2021/04/07 08:32:40;;;;;;;30.07;5.67;;;6.70;99.40;;;;;;4386633;32;20154;-60
2021/04/07 08:35:10;;;;;;;32.30;6.27;;;7.00;97.90;;;;;;4387803;32;20199;-61
2021/04/07 08:37:37;;;;;;;30.97;7.70;;;7.10;98.40;;;;;;4382453;32;20214;-61
2021/04/07 08:40:12;;;;;;;29.83;5.93;;;7.40;97.30;;;;;;4386558;32;20189;-63
2021/04/07 08:42:39;;;;;;;28.80;5.87;;;7.70;96.10;;;;;;4380428;32;20160;-63
2021/04/07 08:45:08;;;;;;;34.53;6.17;;;7.70;96.40;;;;;;4383242;32;20272;-61
2021/04/07 08:47:44;;;;;;;23.83;4.73;;;7.30;95.90;;;;;;4389857;32;20243;-61
2021/04/07 08:50:12;;;;;;;25.53;5.87;;;7.50;96.80;;;;;;4388319;32;20246;-65
2021/04/07 08:52:43;;;;;;;28.57;5.70;;;7.90;96.30;;;;;;4391511;32;20167;-61
2021/04/07 08:55:15;;;;;;;29.57;6.70;;;7.90;95.10;;;;;;4382710;32;20223;-63
2021/04/07 08:57:42;;;;;;;26.60;6.47;;;7.40;95.90;;;;;;4386474;32;20144;-61
2021/04/07 09:00:13;;;;;;;25.03;5.27;;;6.80;97.00;;;;;;4386920;32;20164;-61
2021/04/07 09:02:54;;;;;;;27.03;4.93;;;6.50;96.10;;;;;;4381214;32;20227;-62
2021/04/07 09:05:31;;;;;;;21.83;4.23;;;6.70;95.90;;;;;;4380526;32;20211;-60
2021/04/07 09:07:59;;;;;;;21.63;5.33;;;7.30;94.80;;;;;;4379574;32;20261;-63
2021/04/07 09:10:26;;;;;;;22.13;4.10;;;7.90;94.80;;;;;;4377851;32;20220;-62
2021/04/07 09:12:54;;;;;;;22.77;4.77;;;8.40;92.70;;;;;;4377608;32;20164;-65
2021/04/07 09:15:23;;;;;;;21.47;4.63;;;8.20;91.70;;;;;;4376626;32;20222;-61
2021/04/07 09:17:53;;;;;;;26.77;5.13;;;8.30;93.10;;;;;;4378800;32;20149;-65
2021/04/07 09:20:39;;;;;;;26.97;5.17;;;7.70;94.70;;;;;;4374960;32;20270;-61
2021/04/07 09:23:15;;;;;;;22.63;5.40;;;7.00;96.70;;;;;;4379476;32;20197;-63
2021/04/07 09:25:50;;;;;;;35.00;6.20;;;7.30;97.50;;;;;;4376431;32;20267;-61
2021/04/07 09:28:17;;;;;;;33.60;6.70;;;7.70;96.20;;;;;;4375769;32;20175;-61
2021/04/07 09:30:47;;;;;;;31.77;6.63;;;8.30;98.20;;;;;;4376224;32;20148;-61
2021/04/07 09:33:19;;;;;;;25.50;4.90;;;9.20;94.80;;;;;;4377182;32;20175;-62
2021/04/07 09:35:53;;;;;;;34.03;6.37;;;9.00;93.60;;;;;;4373631;32;20206;-61
2021/04/07 09:38:19;;;;;;;33.43;5.67;;;7.80;93.50;;;;;;4378835;32;20149;-63
2021/04/07 09:40:46;;;;;;;24.17;5.70;;;7.20;94.00;;;;;;4379691;32;20155;-62
2021/04/07 09:43:16;;;;;;;26.27;4.73;;;7.10;95.60;;;;;;4374632;32;20166;-62
2021/04/07 09:45:49;;;;;;;27.50;4.77;;;7.40;95.60;;;;;;4377566;32;20654;-62
2021/04/07 09:48:16;;;;;;;23.97;4.90;;;8.00;94.60;;;;;;4376850;32;20208;-62
2021/04/07 09:50:43;;;;;;;25.23;4.30;;;8.70;93.80;;;;;;4379139;32;20504;-64
2021/04/07 09:53:09;;;;;;;24.57;4.47;;;8.90;92.50;;;;;;4378185;32;20144;-63
2021/04/07 09:55:36;;;;;;;21.73;4.50;;;9.30;91.80;;;;;;4374233;32;20152;-60
2021/04/07 09:58:07;;;;;;;26.17;5.27;;;9.10;91.20;;;;;;4377143;32;20219;-62
2021/04/07 10:00:36;;;;;;;22.50;3.97;;;9.30;91.90;;;;;;4379594;32;20452;-63
2021/04/07 10:03:03;;;;;;;21.67;3.83;;;9.80;90.60;;;;;;4375553;32;20229;-63
2021/04/07 10:05:32;;;;;;;26.60;4.90;;;10.30;88.20;;;;;;4375727;32;20160;-63
2021/04/07 10:08:17;;;;;;;20.00;5.13;;;9.80;87.50;;;;;;4376032;32;20210;-64
2021/04/07 10:10:48;;;;;;;22.03;6.17;;;9.80;87.90;;;;;;4377163;32;20178;-62
2021/04/07 10:13:16;;;;;;;30.67;5.87;;;9.90;86.80;;;;;;4376011;32;20223;-62
2021/04/07 10:15:45;;;;;;;23.07;5.23;;;9.90;88.70;;;;;;4377458;32;20211;-62
2021/04/07 10:18:12;;;;;;;22.30;4.90;;;9.50;88.50;;;;;;4376505;32;20176;-62
2021/04/07 10:20:39;;;;;;;20.40;4.80;;;8.80;88.50;;;;;;4374794;32;20619;-63
2021/04/07 10:23:08;;;;;;;28.73;4.90;;;8.10;89.80;;;;;;4375722;32;20174;-63
2021/04/07 10:25:35;;;;;;;32.77;4.77;;;7.60;91.70;;;;;;4375560;32;20164;-62
2021/04/07 10:28:02;;;;;;;22.00;4.70;;;7.90;93.00;;;;;;4377294;32;20168;-62
2021/04/07 10:30:35;;;;;;;22.43;4.03;;;8.50;92.20;;;;;;4378621;32;20175;-62
2021/04/07 10:33:03;;;;;;;18.23;3.77;;;8.80;91.10;;;;;;4375770;32;20179;-62
2021/04/07 10:35:31;;;;;;;18.30;3.70;;;8.90;89.30;;;;;;4378519;32;20178;-62
2021/04/07 10:38:01;;;;;;;18.10;3.73;;;8.50;90.50;;;;;;4377345;32;20499;-62
2021/04/07 10:40:32;;;;;;;19.07;3.87;;;7.80;90.90;;;;;;4377002;32;20203;-62
2021/04/07 10:43:09;;;;;;;19.87;4.30;;;7.70;92.90;;;;;;4375956;32;20191;-63
2021/04/07 10:45:35;;;;;;;23.80;3.73;;;7.50;92.70;;;;;;4378590;32;20166;-62
2021/04/07 10:48:02;;;;;;;19.83;3.80;;;7.60;91.50;;;;;;4375817;32;20287;-61
2021/04/07 10:50:32;;;;;;;25.43;3.77;;;7.70;91.20;;;;;;4375751;32;20228;-62
2021/04/07 10:53:00;;;;;;;12.53;4.07;;;7.90;88.80;;;;;;4375654;32;20171;-62
2021/04/07 10:55:28;;;;;;;15.70;3.07;;;7.80;88.60;;;;;;4377611;32;20607;-62
2021/04/07 10:57:56;;;;;;;16.90;3.37;;;8.70;87.60;;;;;;4378270;32;20144;-63
2021/04/07 11:00:28;;;;;;;10.37;3.20;;;9.10;84.80;;;;;;4372948;32;20270;-62
2021/04/07 11:02:56;;;;;;;17.87;3.60;;;9.40;85.20;;;;;;4377064;32;20207;-63
2021/04/07 11:05:24;;;;;;;20.80;4.30;;;9.60;83.70;;;;;;4375399;32;20160;-64
2021/04/07 11:08:03;;;;;;;12.60;3.03;;;9.10;82.10;;;;;;4379377;32;20156;-62
2021/04/07 11:10:37;;;;;;;17.27;4.30;;;9.00;85.40;;;;;;4383303;32;20177;-62
2021/04/07 11:13:04;;;;;;;23.23;4.80;;;9.10;83.40;;;;;;4374646;32;20207;-64
2021/04/07 11:15:31;;;;;;;26.80;4.03;;;8.60;83.70;;;;;;4377989;32;20156;-63
2021/04/07 11:17:58;;;;;;;20.60;3.70;;;7.60;90.30;;;;;;4380670;32;20510;-61
2021/04/07 11:20:26;;;;;;;20.63;3.77;;;7.20;91.00;;;;;;4377820;32;20238;-62
2021/04/07 11:22:53;;;;;;;24.97;4.90;;;7.50;92.00;;;;;;4380248;32;20584;-61
2021/04/07 11:25:21;;;;;;;19.27;3.83;;;8.10;90.40;;;;;;4378330;32;20230;-62
2021/04/07 11:27:51;;;;;;;16.07;3.77;;;8.30;89.20;;;;;;4379422;32;20178;-63
2021/04/07 11:30:19;;;;;;;20.90;3.93;;;8.90;88.90;;;;;;4378527;32;20195;-63
2021/04/07 11:32:48;;;;;;;18.03;3.70;;;8.90;83.40;;;;;;4378430;32;20199;-63
2021/04/07 11:35:17;;;;;;;15.03;2.87;;;9.00;84.90;;;;;;4377476;32;20156;-63
2021/04/07 11:37:49;;;;;;;12.17;3.23;;;9.40;82.40;;;;;;4380430;32;20203;-62
2021/04/07 11:40:31;;;;;;;19.27;4.23;;;9.60;81.00;;;;;;4385507;32;20161;-62
2021/04/07 11:43:00;;;;;;;16.33;3.40;;;9.60;81.20;;;;;;4383400;32;20206;-63
2021/04/07 11:45:26;;;;;;;18.23;3.83;;;9.50;82.60;;;;;;4381664;32;20144;-61
2021/04/07 11:47:53;;;;;;;14.60;3.20;;;8.90;80.30;;;;;;4383882;32;20140;-63
2021/04/07 11:50:20;;;;;;;17.40;4.00;;;8.70;80.30;;;;;;4383455;32;20160;-63
2021/04/07 11:52:46;;;;;;;19.27;2.87;;;8.40;82.00;;;;;;4377798;32;20200;-61
2021/04/07 11:55:14;;;;;;;15.13;2.10;;;8.80;80.60;;;;;;4383460;32;20163;-62
2021/04/07 11:57:43;;;;;;;14.10;2.67;;;9.10;77.30;;;;;;4382168;32;20171;-62
2021/04/07 12:00:12;;;;;;;10.63;3.50;;;8.80;77.00;;;;;;4379936;32;20171;-62
2021/04/07 12:02:42;;;;;;;15.73;3.30;;;9.00;81.80;;;;;;4385454;32;20250;-62
2021/04/07 12:05:10;;;;;;;10.83;2.57;;;8.80;79.30;;;;;;4382267;32;20152;-62
2021/04/07 12:07:36;;;;;;;12.03;2.57;;;9.50;81.10;;;;;;4385090;32;20172;-61
2021/04/07 12:10:04;;;;;;;16.13;2.80;;;9.40;80.00;;;;;;4379428;32;20234;-62
2021/04/07 12:12:30;;;;;;;12.10;2.70;;;9.00;78.40;;;;;;4391173;32;20169;-62
2021/04/07 12:14:57;;;;;;;10.30;2.87;;;8.90;80.30;;;;;;4388556;32;20311;-62
2021/04/07 12:17:24;;;;;;;17.53;2.93;;;9.00;80.20;;;;;;4387205;32;20152;-61
2021/04/07 12:19:51;;;;;;;16.70;3.10;;;9.10;79.10;;;;;;4384466;32;20606;-62
2021/04/07 12:22:17;;;;;;;12.90;2.20;;;8.80;78.50;;;;;;4388877;32;20241;-62
2021/04/07 12:24:44;;;;;;;13.00;2.63;;;8.60;81.50;;;;;;4389539;32;20167;-62
2021/04/07 12:27:10;;;;;;;13.80;2.53;;;8.80;80.60;;;;;;4386183;32;20198;-61
2021/04/07 12:29:37;;;;;;;10.53;2.13;;;9.00;77.90;;;;;;4379470;32;20643;-63
2021/04/07 12:32:04;;;;;;;14.53;2.90;;;9.20;76.80;;;;;;4380553;32;20181;-60
2021/04/07 12:34:33;;;;;;;14.13;2.90;;;9.30;74.10;;;;;;4375203;32;20687;-62
2021/04/07 12:37:01;;;;;;;13.90;3.00;;;8.80;74.10;;;;;;4380969;32;20149;-61
2021/04/07 12:39:29;;;;;;;10.17;2.73;;;8.80;76.10;;;;;;4390321;32;20516;-63
2021/04/07 12:41:57;;;;;;;11.70;2.67;;;8.80;75.60;;;;;;4387277;32;20206;-62
2021/04/07 12:44:25;;;;;;;38.37;5.67;;;8.80;75.70;;;;;;4382604;32;20213;-61
2021/04/07 12:46:58;;;;;;;14.43;3.20;;;8.30;77.00;;;;;;4386956;32;20148;-61
2021/04/07 12:50:08;;;;;;;14.03;2.63;;;8.20;77.00;;;;;;4376279;32;20133;-63
2021/04/07 12:52:35;;;;;;;16.33;3.57;;;7.20;82.80;;;;;;4379845;32;20187;-61
2021/04/07 12:55:01;;;;;;;19.50;3.43;;;7.50;88.50;;;;;;4384946;32;20522;-62
2021/04/07 12:57:27;;;;;;;12.77;4.13;;;7.60;90.50;;;;;;4381312;32;20669;-62
2021/04/07 12:59:54;;;;;;;13.50;3.37;;;7.80;90.40;;;;;;4382158;32;20160;-63
2021/04/07 13:02:22;;;;;;;17.87;2.70;;;8.00;90.60;;;;;;4385683;32;20159;-62